FVLG weather

Longuiel Airport
Longuiel, Mashonaland West Province, Zimbabwe

Public forecast

Using degrees Celsius for public forecast. Weather courtesy of forecast.io.

METAR (pilot weather report)

Report is more than 6 hours old.

Closest report is Kariba International Airport, 51.8 nm (95.9 km) WNW. Retrieved 2019/05/23 05:00 UTC (1 day ago):

FVKB 230500Z 00000KT CAVOK 14/09 Q1021

TAF (pilot weather forecast)

Forecast is more than 12 hours old.

Closest forecast is Kariba International Airport, 51.8 nm (95.9 km) WNW. Retrieved 2018/08/24 06:00 UTC (9 months ago):

TAF FVKB 240400Z 2406/2416 27005KT CAVOK